sensor_id;sensor_type;location;lat;lon;timestamp;temperature;humidity
25825;DHT22;13658;44.534;18.694;2023-04-03T00:00:51;9.40;99.90
25825;DHT22;13658;44.534;18.694;2023-04-03T00:03:18;9.40;99.90
25825;DHT22;13658;44.534;18.694;2023-04-03T00:05:45;9.50;99.90
25825;DHT22;13658;44.534;18.694;2023-04-03T00:08:11;9.40;99.90
25825;DHT22;13658;44.534;18.694;2023-04-03T00:10:38;9.40;99.90
25825;DHT22;13658;44.534;18.694;2023-04-03T00:13:05;9.40;99.90
25825;DHT22;13658;44.534;18.694;2023-04-03T00:15:31;9.60;99.90
25825;DHT22;13658;44.534;18.694;2023-04-03T00:17:57;9.60;99.90
25825;DHT22;13658;44.534;18.694;2023-04-03T00:20:23;9.60;99.90
25825;DHT22;13658;44.534;18.694;2023-04-03T00:22:50;9.50;99.90
25825;DHT22;13658;44.534;18.694;2023-04-03T00:25:16;9.60;99.90
25825;DHT22;13658;44.534;18.694;2023-04-03T00:27:42;9.70;99.90
25825;DHT22;13658;44.534;18.694;2023-04-03T00:30:10;9.70;99.90
25825;DHT22;13658;44.534;18.694;2023-04-03T00:32:36;9.80;99.90
25825;DHT22;13658;44.534;18.694;2023-04-03T00:35:02;9.90;99.90
25825;DHT22;13658;44.534;18.694;2023-04-03T00:37:29;9.90;99.90
25825;DHT22;13658;44.534;18.694;2023-04-03T00:39:55;9.80;99.90
25825;DHT22;13658;44.534;18.694;2023-04-03T00:42:21;9.80;99.90
25825;DHT22;13658;44.534;18.694;2023-04-03T00:47:16;9.80;99.90
25825;DHT22;13658;44.534;18.694;2023-04-03T00:49:43;9.70;99.90
25825;DHT22;13658;44.534;18.694;2023-04-03T00:52:14;9.70;99.90
25825;DHT22;13658;44.534;18.694;2023-04-03T00:54:43;9.60;99.90
25825;DHT22;13658;44.534;18.694;2023-04-03T00:57:11;9.70;99.90
25825;DHT22;13658;44.534;18.694;2023-04-03T00:59:44;9.50;99.90
25825;DHT22;13658;44.534;18.694;2023-04-03T01:02:11;9.50;99.90
25825;DHT22;13658;44.534;18.694;2023-04-03T01:04:39;9.30;99.90
25825;DHT22;13658;44.534;18.694;2023-04-03T01:07:12;9.30;99.90
25825;DHT22;13658;44.534;18.694;2023-04-03T01:09:40;9.20;99.90
25825;DHT22;13658;44.534;18.694;2023-04-03T01:12:15;9.20;99.90
25825;DHT22;13658;44.534;18.694;2023-04-03T01:14:48;9.10;99.90
25825;DHT22;13658;44.534;18.694;2023-04-03T01:25:51;8.90;99.90
25825;DHT22;13658;44.534;18.694;2023-04-03T01:28:24;9.00;99.90
25825;DHT22;13658;44.534;18.694;2023-04-03T01:33:42;8.80;99.90
25825;DHT22;13658;44.534;18.694;2023-04-03T01:36:11;8.80;99.90
25825;DHT22;13658;44.534;18.694;2023-04-03T01:38:39;8.70;99.90
25825;DHT22;13658;44.534;18.694;2023-04-03T01:41:05;8.60;99.90
25825;DHT22;13658;44.534;18.694;2023-04-03T01:43:31;8.60;99.90
25825;DHT22;13658;44.534;18.694;2023-04-03T01:45:57;8.50;99.90
25825;DHT22;13658;44.534;18.694;2023-04-03T01:48:23;8.50;99.90
25825;DHT22;13658;44.534;18.694;2023-04-03T01:50:49;8.50;99.90
25825;DHT22;13658;44.534;18.694;2023-04-03T01:53:15;8.50;99.90
25825;DHT22;13658;44.534;18.694;2023-04-03T01:55:44;8.50;99.90
25825;DHT22;13658;44.534;18.694;2023-04-03T01:58:11;8.30;99.90
25825;DHT22;13658;44.534;18.694;2023-04-03T02:00:37;8.30;99.90
25825;DHT22;13658;44.534;18.694;2023-04-03T02:03:03;8.20;99.90
25825;DHT22;13658;44.534;18.694;2023-04-03T02:05:29;8.20;99.90
25825;DHT22;13658;44.534;18.694;2023-04-03T02:07:55;8.10;99.90
25825;DHT22;13658;44.534;18.694;2023-04-03T02:10:22;8.10;99.90
25825;DHT22;13658;44.534;18.694;2023-04-03T02:12:48;8.00;99.90
25825;DHT22;13658;44.534;18.694;2023-04-03T02:15:14;7.90;99.90
25825;DHT22;13658;44.534;18.694;2023-04-03T02:17:40;7.90;99.90
25825;DHT22;13658;44.534;18.694;2023-04-03T02:20:07;7.90;99.90
25825;DHT22;13658;44.534;18.694;2023-04-03T02:22:33;7.90;99.90
25825;DHT22;13658;44.534;18.694;2023-04-03T02:24:59;7.80;99.90
25825;DHT22;13658;44.534;18.694;2023-04-03T02:27:25;7.80;99.90
25825;DHT22;13658;44.534;18.694;2023-04-03T02:29:51;7.70;99.90
25825;DHT22;13658;44.534;18.694;2023-04-03T02:32:17;7.60;99.90
25825;DHT22;13658;44.534;18.694;2023-04-03T02:34:43;7.60;99.90
25825;DHT22;13658;44.534;18.694;2023-04-03T02:37:13;7.60;99.90
25825;DHT22;13658;44.534;18.694;2023-04-03T02:39:40;7.50;99.90
25825;DHT22;13658;44.534;18.694;2023-04-03T02:42:06;7.40;99.90
25825;DHT22;13658;44.534;18.694;2023-04-03T02:44:33;7.40;99.90
25825;DHT22;13658;44.534;18.694;2023-04-03T02:46:59;7.20;99.90
25825;DHT22;13658;44.534;18.694;2023-04-03T02:49:25;7.30;99.90
25825;DHT22;13658;44.534;18.694;2023-04-03T02:51:51;7.30;99.90
25825;DHT22;13658;44.534;18.694;2023-04-03T02:54:17;7.30;99.90
25825;DHT22;13658;44.534;18.694;2023-04-03T02:56:48;7.30;99.90
25825;DHT22;13658;44.534;18.694;2023-04-03T02:59:14;7.10;99.90
25825;DHT22;13658;44.534;18.694;2023-04-03T03:01:41;7.10;99.90
25825;DHT22;13658;44.534;18.694;2023-04-03T03:04:07;6.90;99.90
25825;DHT22;13658;44.534;18.694;2023-04-03T03:06:33;6.80;99.90
25825;DHT22;13658;44.534;18.694;2023-04-03T03:08:59;6.80;99.90
25825;DHT22;13658;44.534;18.694;2023-04-03T03:11:25;6.70;99.90
25825;DHT22;13658;44.534;18.694;2023-04-03T03:13:52;6.80;99.90
25825;DHT22;13658;44.534;18.694;2023-04-03T03:16:18;6.80;99.90
25825;DHT22;13658;44.534;18.694;2023-04-03T03:18:44;6.80;99.90
25825;DHT22;13658;44.534;18.694;2023-04-03T03:21:11;6.70;99.90
25825;DHT22;13658;44.534;18.694;2023-04-03T03:23:37;6.70;99.90
25825;DHT22;13658;44.534;18.694;2023-04-03T03:26:06;6.60;99.90
25825;DHT22;13658;44.534;18.694;2023-04-03T03:28:34;6.70;99.90
25825;DHT22;13658;44.534;18.694;2023-04-03T03:31:02;6.70;99.90
25825;DHT22;13658;44.534;18.694;2023-04-03T03:33:29;6.70;99.90
25825;DHT22;13658;44.534;18.694;2023-04-03T03:35:56;6.70;99.90
25825;DHT22;13658;44.534;18.694;2023-04-03T03:38:22;6.70;99.90
25825;DHT22;13658;44.534;18.694;2023-04-03T03:40:50;6.50;99.90
25825;DHT22;13658;44.534;18.694;2023-04-03T03:43:18;6.60;99.90
25825;DHT22;13658;44.534;18.694;2023-04-03T03:45:50;6.50;99.90
25825;DHT22;13658;44.534;18.694;2023-04-03T03:48:17;6.50;99.90
25825;DHT22;13658;44.534;18.694;2023-04-03T03:50:43;6.40;99.90
25825;DHT22;13658;44.534;18.694;2023-04-03T03:53:10;6.40;99.90
25825;DHT22;13658;44.534;18.694;2023-04-03T03:55:36;6.40;99.90
25825;DHT22;13658;44.534;18.694;2023-04-03T03:58:03;6.40;99.90
25825;DHT22;13658;44.534;18.694;2023-04-03T04:00:30;6.20;99.90
25825;DHT22;13658;44.534;18.694;2023-04-03T04:02:57;6.10;99.90
25825;DHT22;13658;44.534;18.694;2023-04-03T04:05:24;6.10;99.90
25825;DHT22;13658;44.534;18.694;2023-04-03T04:07:52;5.90;99.90
25825;DHT22;13658;44.534;18.694;2023-04-03T04:10:18;5.90;99.90
25825;DHT22;13658;44.534;18.694;2023-04-03T04:12:45;5.80;99.90
25825;DHT22;13658;44.534;18.694;2023-04-03T04:15:11;5.60;99.90
25825;DHT22;13658;44.534;18.694;2023-04-03T04:17:38;5.40;99.90
25825;DHT22;13658;44.534;18.694;2023-04-03T04:20:07;5.30;99.90
25825;DHT22;13658;44.534;18.694;2023-04-03T04:22:35;5.20;99.90
25825;DHT22;13658;44.534;18.694;2023-04-03T04:25:01;5.20;99.90
25825;DHT22;13658;44.534;18.694;2023-04-03T04:27:27;5.10;99.90
25825;DHT22;13658;44.534;18.694;2023-04-03T04:29:54;5.10;99.90
25825;DHT22;13658;44.534;18.694;2023-04-03T04:32:21;4.90;99.90
25825;DHT22;13658;44.534;18.694;2023-04-03T04:34:47;4.70;99.90
25825;DHT22;13658;44.534;18.694;2023-04-03T04:37:13;4.60;99.90
25825;DHT22;13658;44.534;18.694;2023-04-03T04:39:39;4.40;99.90
25825;DHT22;13658;44.534;18.694;2023-04-03T04:42:06;4.40;99.90
25825;DHT22;13658;44.534;18.694;2023-04-03T04:44:33;4.50;99.90
25825;DHT22;13658;44.534;18.694;2023-04-03T04:46:59;4.40;99.90
25825;DHT22;13658;44.534;18.694;2023-04-03T04:49:27;4.40;99.90
25825;DHT22;13658;44.534;18.694;2023-04-03T04:51:53;4.40;99.90
25825;DHT22;13658;44.534;18.694;2023-04-03T04:54:26;4.40;99.90
25825;DHT22;13658;44.534;18.694;2023-04-03T04:56:52;4.30;99.90
25825;DHT22;13658;44.534;18.694;2023-04-03T04:59:19;4.20;99.90
25825;DHT22;13658;44.534;18.694;2023-04-03T05:01:45;4.30;99.90
25825;DHT22;13658;44.534;18.694;2023-04-03T05:04:15;4.20;99.90
25825;DHT22;13658;44.534;18.694;2023-04-03T05:06:42;4.10;99.90
25825;DHT22;13658;44.534;18.694;2023-04-03T05:09:13;4.00;99.90
25825;DHT22;13658;44.534;18.694;2023-04-03T05:11:43;4.10;99.90
25825;DHT22;13658;44.534;18.694;2023-04-03T05:14:09;4.10;99.90
25825;DHT22;13658;44.534;18.694;2023-04-03T05:16:36;4.10;99.90
25825;DHT22;13658;44.534;18.694;2023-04-03T05:19:02;4.00;99.90
25825;DHT22;13658;44.534;18.694;2023-04-03T05:21:29;4.00;99.90
25825;DHT22;13658;44.534;18.694;2023-04-03T05:24:02;4.00;99.90
25825;DHT22;13658;44.534;18.694;2023-04-03T05:26:31;3.90;99.90
25825;DHT22;13658;44.534;18.694;2023-04-03T05:28:58;3.90;99.90
25825;DHT22;13658;44.534;18.694;2023-04-03T05:31:25;4.00;99.90
25825;DHT22;13658;44.534;18.694;2023-04-03T05:33:51;4.20;99.90
25825;DHT22;13658;44.534;18.694;2023-04-03T05:36:18;4.30;99.90
25825;DHT22;13658;44.534;18.694;2023-04-03T05:38:48;4.20;99.90
25825;DHT22;13658;44.534;18.694;2023-04-03T05:41:15;4.20;99.90
25825;DHT22;13658;44.534;18.694;2023-04-03T05:43:44;4.30;99.90
25825;DHT22;13658;44.534;18.694;2023-04-03T05:46:18;4.10;99.90
25825;DHT22;13658;44.534;18.694;2023-04-03T05:48:49;4.10;99.90
25825;DHT22;13658;44.534;18.694;2023-04-03T05:51:22;4.20;99.90
25825;DHT22;13658;44.534;18.694;2023-04-03T05:53:57;4.20;99.90
25825;DHT22;13658;44.534;18.694;2023-04-03T05:56:24;4.20;99.90
25825;DHT22;13658;44.534;18.694;2023-04-03T05:58:51;4.20;99.90
25825;DHT22;13658;44.534;18.694;2023-04-03T06:01:17;4.20;99.90
25825;DHT22;13658;44.534;18.694;2023-04-03T06:03:43;4.10;99.90
25825;DHT22;13658;44.534;18.694;2023-04-03T06:06:13;4.20;99.90
25825;DHT22;13658;44.534;18.694;2023-04-03T06:08:40;4.40;99.90
25825;DHT22;13658;44.534;18.694;2023-04-03T06:11:06;4.50;99.90
25825;DHT22;13658;44.534;18.694;2023-04-03T06:13:34;4.40;99.90
25825;DHT22;13658;44.534;18.694;2023-04-03T06:16:01;4.30;99.90
25825;DHT22;13658;44.534;18.694;2023-04-03T06:18:28;4.40;99.90
25825;DHT22;13658;44.534;18.694;2023-04-03T06:20:54;4.40;99.90
25825;DHT22;13658;44.534;18.694;2023-04-03T06:23:20;4.50;99.90
25825;DHT22;13658;44.534;18.694;2023-04-03T06:25:46;4.40;99.90
25825;DHT22;13658;44.534;18.694;2023-04-03T06:28:12;4.50;99.90
25825;DHT22;13658;44.534;18.694;2023-04-03T06:30:38;4.40;99.90
25825;DHT22;13658;44.534;18.694;2023-04-03T06:33:04;4.50;99.90
25825;DHT22;13658;44.534;18.694;2023-04-03T06:35:30;4.50;99.90
25825;DHT22;13658;44.534;18.694;2023-04-03T06:37:57;4.50;99.90
25825;DHT22;13658;44.534;18.694;2023-04-03T06:40:24;4.50;99.90
25825;DHT22;13658;44.534;18.694;2023-04-03T06:42:51;4.60;99.90
25825;DHT22;13658;44.534;18.694;2023-04-03T06:45:18;4.50;99.90
25825;DHT22;13658;44.534;18.694;2023-04-03T06:47:47;4.50;99.90
25825;DHT22;13658;44.534;18.694;2023-04-03T06:50:13;4.60;99.90
25825;DHT22;13658;44.534;18.694;2023-04-03T06:52:40;4.60;99.90
25825;DHT22;13658;44.534;18.694;2023-04-03T06:55:07;4.60;99.90
25825;DHT22;13658;44.534;18.694;2023-04-03T06:57:33;4.70;99.90
25825;DHT22;13658;44.534;18.694;2023-04-03T07:00:00;4.80;99.90
25825;DHT22;13658;44.534;18.694;2023-04-03T07:02:26;4.80;99.90
25825;DHT22;13658;44.534;18.694;2023-04-03T07:04:52;4.90;99.90
25825;DHT22;13658;44.534;18.694;2023-04-03T07:07:18;5.00;99.90
25825;DHT22;13658;44.534;18.694;2023-04-03T07:09:44;5.00;99.90
25825;DHT22;13658;44.534;18.694;2023-04-03T07:12:10;5.00;99.90
25825;DHT22;13658;44.534;18.694;2023-04-03T07:14:36;5.00;99.90
25825;DHT22;13658;44.534;18.694;2023-04-03T07:17:02;5.10;99.90
25825;DHT22;13658;44.534;18.694;2023-04-03T07:19:28;5.20;99.90
25825;DHT22;13658;44.534;18.694;2023-04-03T07:21:54;5.20;99.90
25825;DHT22;13658;44.534;18.694;2023-04-03T07:24:21;5.00;99.90
25825;DHT22;13658;44.534;18.694;2023-04-03T07:26:54;5.10;99.90
25825;DHT22;13658;44.534;18.694;2023-04-03T07:29:20;5.20;99.90
25825;DHT22;13658;44.534;18.694;2023-04-03T07:31:47;5.30;99.90
25825;DHT22;13658;44.534;18.694;2023-04-03T07:34:13;5.30;99.90
25825;DHT22;13658;44.534;18.694;2023-04-03T07:36:39;5.30;99.90
25825;DHT22;13658;44.534;18.694;2023-04-03T07:39:05;5.20;99.90
25825;DHT22;13658;44.534;18.694;2023-04-03T07:41:32;5.30;99.90
25825;DHT22;13658;44.534;18.694;2023-04-03T07:43:58;5.30;99.90
25825;DHT22;13658;44.534;18.694;2023-04-03T07:46:24;5.30;99.90
25825;DHT22;13658;44.534;18.694;2023-04-03T07:48:50;5.30;99.90
25825;DHT22;13658;44.534;18.694;2023-04-03T07:51:16;5.30;99.90
25825;DHT22;13658;44.534;18.694;2023-04-03T07:53:42;5.30;99.90
25825;DHT22;13658;44.534;18.694;2023-04-03T07:56:08;5.30;99.90
25825;DHT22;13658;44.534;18.694;2023-04-03T07:58:35;5.40;99.90
25825;DHT22;13658;44.534;18.694;2023-04-03T08:01:01;5.40;99.90
25825;DHT22;13658;44.534;18.694;2023-04-03T08:03:27;5.40;99.90
25825;DHT22;13658;44.534;18.694;2023-04-03T08:05:53;5.40;99.90
25825;DHT22;13658;44.534;18.694;2023-04-03T08:08:22;5.30;99.90
25825;DHT22;13658;44.534;18.694;2023-04-03T08:10:52;5.50;99.90
25825;DHT22;13658;44.534;18.694;2023-04-03T08:13:19;5.50;99.90
25825;DHT22;13658;44.534;18.694;2023-04-03T08:15:45;5.60;99.90
25825;DHT22;13658;44.534;18.694;2023-04-03T08:18:13;5.60;99.90
25825;DHT22;13658;44.534;18.694;2023-04-03T08:20:39;5.60;99.90
25825;DHT22;13658;44.534;18.694;2023-04-03T08:23:07;5.60;99.90
25825;DHT22;13658;44.534;18.694;2023-04-03T08:25:38;5.60;99.90
25825;DHT22;13658;44.534;18.694;2023-04-03T08:28:05;5.60;99.90
25825;DHT22;13658;44.534;18.694;2023-04-03T08:30:31;5.60;99.90
25825;DHT22;13658;44.534;18.694;2023-04-03T08:32:57;5.70;99.90
25825;DHT22;13658;44.534;18.694;2023-04-03T08:35:23;5.70;99.90
25825;DHT22;13658;44.534;18.694;2023-04-03T08:37:48;5.70;99.90
25825;DHT22;13658;44.534;18.694;2023-04-03T08:40:16;5.70;99.90
25825;DHT22;13658;44.534;18.694;2023-04-03T08:43:19;5.70;99.90
25825;DHT22;13658;44.534;18.694;2023-04-03T08:45:48;5.80;99.90
25825;DHT22;13658;44.534;18.694;2023-04-03T08:48:20;5.70;99.90
25825;DHT22;13658;44.534;18.694;2023-04-03T08:50:57;5.70;99.90
25825;DHT22;13658;44.534;18.694;2023-04-03T08:53:29;5.70;99.90
25825;DHT22;13658;44.534;18.694;2023-04-03T08:55:58;5.70;99.90
25825;DHT22;13658;44.534;18.694;2023-04-03T08:58:30;5.70;99.90
25825;DHT22;13658;44.534;18.694;2023-04-03T09:01:03;5.80;99.90
25825;DHT22;13658;44.534;18.694;2023-04-03T09:03:33;5.70;99.90
25825;DHT22;13658;44.534;18.694;2023-04-03T09:06:22;5.60;99.90
25825;DHT22;13658;44.534;18.694;2023-04-03T09:12:00;5.60;99.90
25825;DHT22;13658;44.534;18.694;2023-04-03T09:17:50;5.80;99.90
25825;DHT22;13658;44.534;18.694;2023-04-03T09:20:39;5.80;99.90
25825;DHT22;13658;44.534;18.694;2023-04-03T09:23:20;5.90;99.90
25825;DHT22;13658;44.534;18.694;2023-04-03T09:25:49;5.80;99.90
25825;DHT22;13658;44.534;18.694;2023-04-03T09:28:16;5.80;99.90
25825;DHT22;13658;44.534;18.694;2023-04-03T09:30:42;5.80;99.90
25825;DHT22;13658;44.534;18.694;2023-04-03T09:33:08;5.80;99.90
25825;DHT22;13658;44.534;18.694;2023-04-03T09:35:37;5.90;99.90
25825;DHT22;13658;44.534;18.694;2023-04-03T09:40:39;6.00;99.90
25825;DHT22;13658;44.534;18.694;2023-04-03T09:45:47;6.10;99.90
25825;DHT22;13658;44.534;18.694;2023-04-03T09:50:56;6.00;99.90
25825;DHT22;13658;44.534;18.694;2023-04-03T09:53:37;6.10;99.90
25825;DHT22;13658;44.534;18.694;2023-04-03T09:58:39;6.20;99.90
25825;DHT22;13658;44.534;18.694;2023-04-03T10:01:29;6.20;99.90
25825;DHT22;13658;44.534;18.694;2023-04-03T10:04:09;6.30;99.90
25825;DHT22;13658;44.534;18.694;2023-04-03T10:06:47;6.40;99.90
25825;DHT22;13658;44.534;18.694;2023-04-03T10:09:32;6.40;99.90
25825;DHT22;13658;44.534;18.694;2023-04-03T10:12:12;6.30;99.90
25825;DHT22;13658;44.534;18.694;2023-04-03T10:15:00;6.40;99.90
25825;DHT22;13658;44.534;18.694;2023-04-03T10:20:39;6.40;99.90
25825;DHT22;13658;44.534;18.694;2023-04-03T10:23:23;6.20;99.90
25825;DHT22;13658;44.534;18.694;2023-04-03T10:41:50;6.30;99.90
25825;DHT22;13658;44.534;18.694;2023-04-03T10:44:29;6.00;99.90
25825;DHT22;13658;44.534;18.694;2023-04-03T10:47:02;6.20;99.90
25825;DHT22;13658;44.534;18.694;2023-04-03T10:53:05;6.20;99.90
25825;DHT22;13658;44.534;18.694;2023-04-03T10:55:46;6.20;99.90
25825;DHT22;13658;44.534;18.694;2023-04-03T10:58:36;6.40;99.90
25825;DHT22;13658;44.534;18.694;2023-04-03T11:01:21;6.40;99.90
25825;DHT22;13658;44.534;18.694;2023-04-03T11:03:54;6.50;99.90
25825;DHT22;13658;44.534;18.694;2023-04-03T11:06:26;6.40;99.90
25825;DHT22;13658;44.534;18.694;2023-04-03T11:09:05;6.30;99.90
25825;DHT22;13658;44.534;18.694;2023-04-03T11:11:38;6.30;99.90
25825;DHT22;13658;44.534;18.694;2023-04-03T11:14:26;6.30;99.90
25825;DHT22;13658;44.534;18.694;2023-04-03T11:20:06;6.10;99.90
25825;DHT22;13658;44.534;18.694;2023-04-03T11:22:42;6.00;99.90
25825;DHT22;13658;44.534;18.694;2023-04-03T11:27:48;6.10;99.90
25825;DHT22;13658;44.534;18.694;2023-04-03T11:30:20;6.10;99.90
25825;DHT22;13658;44.534;18.694;2023-04-03T11:32:58;6.10;99.90
25825;DHT22;13658;44.534;18.694;2023-04-03T11:35:27;6.10;99.90
25825;DHT22;13658;44.534;18.694;2023-04-03T11:37:54;6.00;99.90
25825;DHT22;13658;44.534;18.694;2023-04-03T11:40:33;6.00;99.90
25825;DHT22;13658;44.534;18.694;2023-04-03T11:45:36;6.20;99.90
25825;DHT22;13658;44.534;18.694;2023-04-03T11:50:47;6.30;99.90
25825;DHT22;13658;44.534;18.694;2023-04-03T11:58:20;6.20;99.90
25825;DHT22;13658;44.534;18.694;2023-04-03T12:00:51;6.10;99.90
25825;DHT22;13658;44.534;18.694;2023-04-03T12:14:12;6.10;99.90
25825;DHT22;13658;44.534;18.694;2023-04-03T12:16:32;6.10;99.90
25825;DHT22;13658;44.534;18.694;2023-04-03T12:26:46;6.10;99.90
25825;DHT22;13658;44.534;18.694;2023-04-03T12:29:20;6.10;99.90
25825;DHT22;13658;44.534;18.694;2023-04-03T12:32:05;6.10;99.90
25825;DHT22;13658;44.534;18.694;2023-04-03T12:46:08;6.10;99.90
25825;DHT22;13658;44.534;18.694;2023-04-03T12:48:47;6.20;99.90
25825;DHT22;13658;44.534;18.694;2023-04-03T12:53:58;6.30;99.90
25825;DHT22;13658;44.534;18.694;2023-04-03T12:56:28;6.20;99.90
25825;DHT22;13658;44.534;18.694;2023-04-03T12:59:12;6.30;99.90
25825;DHT22;13658;44.534;18.694;2023-04-03T13:01:39;6.20;99.90
25825;DHT22;13658;44.534;18.694;2023-04-03T13:04:05;6.10;99.90
25825;DHT22;13658;44.534;18.694;2023-04-03T13:06:35;6.20;99.90
25825;DHT22;13658;44.534;18.694;2023-04-03T13:09:04;6.20;99.90
25825;DHT22;13658;44.534;18.694;2023-04-03T13:11:36;6.20;99.90
25825;DHT22;13658;44.534;18.694;2023-04-03T13:14:19;6.20;99.90
25825;DHT22;13658;44.534;18.694;2023-04-03T13:16:57;6.10;99.90
25825;DHT22;13658;44.534;18.694;2023-04-03T13:19:25;6.20;99.90
25825;DHT22;13658;44.534;18.694;2023-04-03T13:22:08;6.20;99.90
25825;DHT22;13658;44.534;18.694;2023-04-03T13:24:39;6.10;99.90
25825;DHT22;13658;44.534;18.694;2023-04-03T13:27:05;6.20;99.90
25825;DHT22;13658;44.534;18.694;2023-04-03T13:29:36;6.10;99.90
25825;DHT22;13658;44.534;18.694;2023-04-03T13:32:04;6.20;99.90
25825;DHT22;13658;44.534;18.694;2023-04-03T13:34:40;6.20;99.90
25825;DHT22;13658;44.534;18.694;2023-04-03T13:37:11;6.20;99.90
25825;DHT22;13658;44.534;18.694;2023-04-03T13:39:44;6.10;99.90
25825;DHT22;13658;44.534;18.694;2023-04-03T13:42:24;6.20;99.90
25825;DHT22;13658;44.534;18.694;2023-04-03T13:45:18;6.20;99.90
25825;DHT22;13658;44.534;18.694;2023-04-03T13:47:46;6.20;99.90
25825;DHT22;13658;44.534;18.694;2023-04-03T13:58:30;6.40;99.90
25825;DHT22;13658;44.534;18.694;2023-04-03T14:01:11;6.50;99.90
25825;DHT22;13658;44.534;18.694;2023-04-03T14:03:55;6.50;99.90
25825;DHT22;13658;44.534;18.694;2023-04-03T14:06:22;6.50;99.90
25825;DHT22;13658;44.534;18.694;2023-04-03T14:11:31;6.60;99.90
25825;DHT22;13658;44.534;18.694;2023-04-03T14:14:01;6.70;99.90
25825;DHT22;13658;44.534;18.694;2023-04-03T14:16:32;6.80;99.90
25825;DHT22;13658;44.534;18.694;2023-04-03T14:19:03;6.70;99.90
25825;DHT22;13658;44.534;18.694;2023-04-03T14:21:29;6.70;99.90
25825;DHT22;13658;44.534;18.694;2023-04-03T14:23:57;6.70;99.90
25825;DHT22;13658;44.534;18.694;2023-04-03T14:29:40;6.70;99.90
25825;DHT22;13658;44.534;18.694;2023-04-03T14:32:12;6.60;99.90
25825;DHT22;13658;44.534;18.694;2023-04-03T14:34:41;6.60;99.90
25825;DHT22;13658;44.534;18.694;2023-04-03T14:37:18;6.80;99.90
25825;DHT22;13658;44.534;18.694;2023-04-03T14:39:50;6.80;99.90
25825;DHT22;13658;44.534;18.694;2023-04-03T14:42:24;6.90;99.90
25825;DHT22;13658;44.534;18.694;2023-04-03T14:44:52;6.80;99.90
25825;DHT22;13658;44.534;18.694;2023-04-03T14:47:21;6.80;99.90
25825;DHT22;13658;44.534;18.694;2023-04-03T14:49:48;6.80;99.90
25825;DHT22;13658;44.534;18.694;2023-04-03T14:52:28;6.80;99.90
25825;DHT22;13658;44.534;18.694;2023-04-03T14:54:55;6.90;99.90
25825;DHT22;13658;44.534;18.694;2023-04-03T14:57:24;7.00;99.90
25825;DHT22;13658;44.534;18.694;2023-04-03T14:59:51;7.00;99.90
25825;DHT22;13658;44.534;18.694;2023-04-03T15:02:29;7.00;99.90
25825;DHT22;13658;44.534;18.694;2023-04-03T15:04:57;6.90;99.90
25825;DHT22;13658;44.534;18.694;2023-04-03T15:07:28;6.80;99.90
25825;DHT22;13658;44.534;18.694;2023-04-03T15:12:43;6.80;99.90
25825;DHT22;13658;44.534;18.694;2023-04-03T15:15:10;6.80;99.90
25825;DHT22;13658;44.534;18.694;2023-04-03T15:17:37;6.80;99.90
25825;DHT22;13658;44.534;18.694;2023-04-03T15:20:05;6.80;99.90
25825;DHT22;13658;44.534;18.694;2023-04-03T15:22:38;6.80;99.90
25825;DHT22;13658;44.534;18.694;2023-04-03T15:25:06;6.70;99.90
25825;DHT22;13658;44.534;18.694;2023-04-03T15:27:32;6.80;99.90
25825;DHT22;13658;44.534;18.694;2023-04-03T15:29:59;6.70;99.90
25825;DHT22;13658;44.534;18.694;2023-04-03T15:32:25;6.80;99.90
25825;DHT22;13658;44.534;18.694;2023-04-03T15:34:51;6.90;99.90
25825;DHT22;13658;44.534;18.694;2023-04-03T15:37:17;6.80;99.90
25825;DHT22;13658;44.534;18.694;2023-04-03T15:39:43;6.70;99.90
25825;DHT22;13658;44.534;18.694;2023-04-03T15:42:09;6.70;99.90
25825;DHT22;13658;44.534;18.694;2023-04-03T15:44:38;6.70;99.90
25825;DHT22;13658;44.534;18.694;2023-04-03T15:47:06;6.60;99.90
25825;DHT22;13658;44.534;18.694;2023-04-03T15:49:33;6.60;99.90
25825;DHT22;13658;44.534;18.694;2023-04-03T15:52:00;6.70;99.90
25825;DHT22;13658;44.534;18.694;2023-04-03T15:54:29;6.60;99.90
25825;DHT22;13658;44.534;18.694;2023-04-03T15:56:59;6.60;99.90
25825;DHT22;13658;44.534;18.694;2023-04-03T15:59:38;6.60;99.90
25825;DHT22;13658;44.534;18.694;2023-04-03T16:02:12;6.60;99.90
25825;DHT22;13658;44.534;18.694;2023-04-03T16:04:39;6.70;99.90
25825;DHT22;13658;44.534;18.694;2023-04-03T16:07:05;6.70;99.90
25825;DHT22;13658;44.534;18.694;2023-04-03T16:09:44;6.60;99.90
25825;DHT22;13658;44.534;18.694;2023-04-03T16:12:22;6.60;99.90
25825;DHT22;13658;44.534;18.694;2023-04-03T16:14:50;6.60;99.90
25825;DHT22;13658;44.534;18.694;2023-04-03T16:17:17;6.70;99.90
25825;DHT22;13658;44.534;18.694;2023-04-03T16:19:44;6.60;99.90
25825;DHT22;13658;44.534;18.694;2023-04-03T16:22:10;6.70;99.90
25825;DHT22;13658;44.534;18.694;2023-04-03T16:24:37;6.60;99.90
25825;DHT22;13658;44.534;18.694;2023-04-03T16:27:04;6.60;99.90
25825;DHT22;13658;44.534;18.694;2023-04-03T16:29:30;6.60;99.90
25825;DHT22;13658;44.534;18.694;2023-04-03T16:31:57;6.50;99.90
25825;DHT22;13658;44.534;18.694;2023-04-03T16:34:24;6.50;99.90
25825;DHT22;13658;44.534;18.694;2023-04-03T16:36:51;6.40;99.90
25825;DHT22;13658;44.534;18.694;2023-04-03T16:39:19;6.50;99.90
25825;DHT22;13658;44.534;18.694;2023-04-03T16:41:45;6.40;99.90
25825;DHT22;13658;44.534;18.694;2023-04-03T16:44:11;6.50;99.90
25825;DHT22;13658;44.534;18.694;2023-04-03T16:46:37;6.50;99.90
25825;DHT22;13658;44.534;18.694;2023-04-03T16:49:04;6.50;99.90
25825;DHT22;13658;44.534;18.694;2023-04-03T16:51:30;6.50;99.90
25825;DHT22;13658;44.534;18.694;2023-04-03T16:53:57;6.50;99.90
25825;DHT22;13658;44.534;18.694;2023-04-03T16:56:24;6.50;99.90
25825;DHT22;13658;44.534;18.694;2023-04-03T16:58:53;6.50;99.90
25825;DHT22;13658;44.534;18.694;2023-04-03T17:01:21;6.50;99.90
25825;DHT22;13658;44.534;18.694;2023-04-03T17:03:48;6.50;99.90
25825;DHT22;13658;44.534;18.694;2023-04-03T17:06:19;6.60;99.90
25825;DHT22;13658;44.534;18.694;2023-04-03T17:08:47;6.60;99.90
25825;DHT22;13658;44.534;18.694;2023-04-03T17:11:29;6.60;99.90
25825;DHT22;13658;44.534;18.694;2023-04-03T17:13:55;6.60;99.90
25825;DHT22;13658;44.534;18.694;2023-04-03T17:16:21;6.60;99.90
25825;DHT22;13658;44.534;18.694;2023-04-03T17:18:48;6.60;99.90
25825;DHT22;13658;44.534;18.694;2023-04-03T17:21:15;6.70;99.90
25825;DHT22;13658;44.534;18.694;2023-04-03T17:23:46;6.80;99.90
25825;DHT22;13658;44.534;18.694;2023-04-03T17:26:13;6.80;99.90
25825;DHT22;13658;44.534;18.694;2023-04-03T17:28:39;6.70;99.90
25825;DHT22;13658;44.534;18.694;2023-04-03T17:31:07;6.70;99.90
25825;DHT22;13658;44.534;18.694;2023-04-03T17:33:33;6.70;99.90
25825;DHT22;13658;44.534;18.694;2023-04-03T17:36:01;6.70;99.90
25825;DHT22;13658;44.534;18.694;2023-04-03T17:38:32;6.70;99.90
25825;DHT22;13658;44.534;18.694;2023-04-03T17:41:00;6.70;99.90